createdAt,value
2023-02-06T00:01:08.177Z,10.60
2023-02-06T00:03:43.679Z,10.03
2023-02-06T00:06:23.836Z,8.90
2023-02-06T00:08:57.359Z,11.10
2023-02-06T00:11:31.392Z,10.10
2023-02-06T00:14:07.144Z,12.23
2023-02-06T00:16:42.346Z,12.27
2023-02-06T00:19:15.314Z,10.77
2023-02-06T00:21:49.477Z,8.70
2023-02-06T00:24:27.260Z,13.77
2023-02-06T00:27:00.112Z,12.47
2023-02-06T00:29:37.918Z,9.87
2023-02-06T00:32:10.781Z,10.77
2023-02-06T00:34:46.396Z,10.73
2023-02-06T00:37:20.616Z,11.13
2023-02-06T00:39:53.635Z,10.70
2023-02-06T00:42:26.754Z,11.03
2023-02-06T00:44:59.746Z,10.10
2023-02-06T00:47:32.562Z,12.83
2023-02-06T00:50:06.012Z,9.97
2023-02-06T00:52:40.393Z,12.07
2023-02-06T00:55:13.244Z,12.50
2023-02-06T00:57:46.416Z,10.30
2023-02-06T01:00:19.823Z,9.03
2023-02-06T01:02:52.828Z,13.73
2023-02-06T01:05:26.159Z,11.27
2023-02-06T01:08:01.486Z,12.27
2023-02-06T01:10:39.225Z,12.33
2023-02-06T01:13:12.628Z,11.70
2023-02-06T01:15:45.622Z,13.30
2023-02-06T01:18:18.591Z,13.27
2023-02-06T01:20:58.587Z,13.03
2023-02-06T01:23:33.170Z,11.43
2023-02-06T01:26:07.100Z,14.17
2023-02-06T01:28:40.612Z,10.67
2023-02-06T01:31:14.170Z,14.47
2023-02-06T01:33:48.009Z,11.50
2023-02-06T01:36:23.549Z,14.60
2023-02-06T01:38:58.019Z,15.87
2023-02-06T01:41:33.273Z,13.10
2023-02-06T01:44:11.679Z,11.10
2023-02-06T01:46:45.262Z,13.77
2023-02-06T01:49:24.815Z,13.53
2023-02-06T01:51:59.267Z,11.97
2023-02-06T01:54:33.572Z,14.60
2023-02-06T01:57:08.230Z,11.47
2023-02-06T01:59:43.127Z,9.83
2023-02-06T02:02:16.126Z,10.90
2023-02-06T02:04:49.565Z,13.43
2023-02-06T02:07:24.304Z,14.43
2023-02-06T02:09:58.610Z,13.00
2023-02-06T02:12:31.433Z,11.53
2023-02-06T02:15:05.098Z,12.77
2023-02-06T02:17:41.145Z,10.70
2023-02-06T02:20:31.595Z,13.27
2023-02-06T02:23:14.890Z,12.20
2023-02-06T02:26:05.657Z,11.43
2023-02-06T02:28:56.984Z,13.20
2023-02-06T02:31:40.868Z,10.33
2023-02-06T02:34:34.321Z,10.70
2023-02-06T02:37:11.691Z,10.97
2023-02-06T02:39:47.049Z,10.93
2023-02-06T02:42:24.421Z,12.47
2023-02-06T02:45:05.181Z,11.53
2023-02-06T02:47:42.610Z,9.50
2023-02-06T02:50:17.910Z,9.13
2023-02-06T02:52:50.899Z,9.47
2023-02-06T02:55:24.342Z,11.10
2023-02-06T02:57:59.196Z,10.23
2023-02-06T03:00:32.594Z,14.47
2023-02-06T03:03:11.062Z,8.73
2023-02-06T03:05:49.502Z,9.97
2023-02-06T03:08:30.196Z,10.93
2023-02-06T03:11:10.264Z,9.17
2023-02-06T03:13:45.680Z,9.83
2023-02-06T03:16:22.182Z,10.60
2023-02-06T03:18:58.551Z,14.20
2023-02-06T03:21:33.783Z,12.47
2023-02-06T03:24:09.282Z,9.47
2023-02-06T03:26:43.047Z,12.07
2023-02-06T03:29:17.367Z,10.70
2023-02-06T03:31:55.165Z,10.00
2023-02-06T03:34:32.677Z,11.20
2023-02-06T03:37:06.965Z,9.60
2023-02-06T03:39:40.075Z,8.17
2023-02-06T03:42:15.673Z,11.03
2023-02-06T03:44:50.928Z,10.07
2023-02-06T03:47:25.290Z,6.73
2023-02-06T03:50:00.038Z,7.27
2023-02-06T03:52:36.305Z,8.73
2023-02-06T03:55:10.914Z,10.50
2023-02-06T03:57:48.438Z,8.13
2023-02-06T04:00:21.535Z,9.73
2023-02-06T04:02:56.911Z,10.97
2023-02-06T04:05:32.260Z,9.97
2023-02-06T04:08:07.109Z,8.33
2023-02-06T04:10:40.341Z,6.77
2023-02-06T04:13:15.472Z,11.77
2023-02-06T04:15:51.639Z,8.80
2023-02-06T04:18:27.598Z,7.63
2023-02-06T04:21:04.344Z,7.97
2023-02-06T04:23:38.666Z,8.40
2023-02-06T04:26:11.950Z,10.30
2023-02-06T04:28:44.787Z,6.93
2023-02-06T04:31:17.825Z,9.90
2023-02-06T04:33:51.251Z,7.57
2023-02-06T04:36:24.082Z,7.77
2023-02-06T04:38:59.628Z,7.87
2023-02-06T04:41:32.540Z,6.77
2023-02-06T04:44:05.781Z,6.43
2023-02-06T04:46:40.359Z,6.37
2023-02-06T04:49:13.489Z,7.77
2023-02-06T04:51:46.416Z,7.90
2023-02-06T04:54:20.662Z,9.60
2023-02-06T04:56:53.836Z,8.27
2023-02-06T04:59:26.817Z,8.00
2023-02-06T05:02:05.595Z,8.00
2023-02-06T05:04:39.258Z,7.00
2023-02-06T05:07:12.169Z,8.77
2023-02-06T05:09:46.607Z,7.10
2023-02-06T05:12:19.859Z,7.70
2023-02-06T05:14:55.805Z,7.40
2023-02-06T05:17:28.818Z,8.20
2023-02-06T05:20:02.052Z,8.80
2023-02-06T05:22:35.104Z,12.30
2023-02-06T05:25:11.155Z,7.90
2023-02-06T05:27:45.252Z,9.10
2023-02-06T05:30:18.838Z,9.40
2023-02-06T05:32:51.903Z,9.63
2023-02-06T05:35:25.509Z,8.67
2023-02-06T05:38:01.763Z,8.97
2023-02-06T05:40:36.056Z,8.10
2023-02-06T05:43:09.047Z,10.67
2023-02-06T05:45:42.322Z,8.30
2023-02-06T05:48:15.620Z,11.67
2023-02-06T05:50:49.524Z,8.67
2023-02-06T05:53:22.508Z,10.67
2023-02-06T05:55:57.225Z,12.80
2023-02-06T05:58:30.010Z,9.77
2023-02-06T06:01:02.905Z,12.83
2023-02-06T06:03:38.129Z,10.97
2023-02-06T06:06:11.312Z,8.73
2023-02-06T06:08:44.316Z,10.00
2023-02-06T06:11:18.696Z,11.40
2023-02-06T06:13:51.658Z,13.70
2023-02-06T06:16:24.878Z,11.07
2023-02-06T06:19:02.817Z,12.60
2023-02-06T06:21:38.723Z,13.33
2023-02-06T06:24:11.780Z,14.53
2023-02-06T06:26:50.474Z,13.27
2023-02-06T06:29:24.480Z,13.53
2023-02-06T06:31:57.539Z,13.00
2023-02-06T06:34:33.412Z,13.60
2023-02-06T06:37:10.130Z,14.43
2023-02-06T06:39:43.088Z,12.63
2023-02-06T06:42:18.979Z,12.37
2023-02-06T06:44:52.205Z,13.07
2023-02-06T06:47:25.344Z,16.97
2023-02-06T06:49:58.282Z,11.57
2023-02-06T06:52:31.640Z,15.00
2023-02-06T06:55:04.681Z,12.17
2023-02-06T06:57:42.930Z,12.17
2023-02-06T07:00:16.698Z,12.90
2023-02-06T07:02:49.721Z,15.37
2023-02-06T07:05:24.789Z,15.07
2023-02-06T07:07:57.902Z,15.20
2023-02-06T07:10:30.862Z,16.17
2023-02-06T07:13:05.608Z,16.83
2023-02-06T07:15:41.702Z,16.43
2023-02-06T07:18:14.975Z,15.43
2023-02-06T07:20:48.327Z,14.87
2023-02-06T07:23:22.173Z,18.17
2023-02-06T07:25:56.587Z,13.37
2023-02-06T07:28:32.604Z,17.47
2023-02-06T07:31:06.730Z,17.20
2023-02-06T07:33:40.540Z,17.67
2023-02-06T07:36:16.130Z,19.37
2023-02-06T07:38:49.118Z,20.67
2023-02-06T07:41:22.134Z,15.13
2023-02-06T07:43:56.631Z,15.90
2023-02-06T07:46:29.652Z,18.60
2023-02-06T07:49:03.817Z,14.53
2023-02-06T07:51:36.645Z,15.37
2023-02-06T07:54:10.043Z,14.00
2023-02-06T07:56:43.311Z,14.80
2023-02-06T07:59:17.985Z,16.17
2023-02-06T08:01:51.118Z,15.30
2023-02-06T08:04:24.128Z,16.77
2023-02-06T08:06:57.329Z,15.57
2023-02-06T08:09:30.364Z,16.00
2023-02-06T08:12:06.487Z,17.17
2023-02-06T08:14:41.156Z,14.87
2023-02-06T08:17:19.821Z,16.60
2023-02-06T08:19:53.110Z,17.63
2023-02-06T08:22:26.511Z,16.37
2023-02-06T08:24:59.737Z,24.93
2023-02-06T08:27:32.994Z,15.43
2023-02-06T08:30:08.820Z,15.90
2023-02-06T08:32:41.767Z,20.63
2023-02-06T08:35:19.190Z,17.93
2023-02-06T08:37:52.186Z,21.33
2023-02-06T08:40:27.365Z,23.60
2023-02-06T08:43:00.424Z,17.33
2023-02-06T08:45:35.240Z,23.60
2023-02-06T08:48:08.660Z,18.83
2023-02-06T08:50:42.295Z,18.53
2023-02-06T08:53:15.712Z,23.70
2023-02-06T08:55:49.026Z,20.67
2023-02-06T08:58:22.130Z,25.60
2023-02-06T09:00:56.800Z,29.90
2023-02-06T09:03:29.750Z,28.50
2023-02-06T09:06:09.682Z,23.50
2023-02-06T09:08:43.609Z,20.33
2023-02-06T09:11:17.287Z,19.73
2023-02-06T09:13:52.964Z,30.27
2023-02-06T09:16:28.396Z,24.43
2023-02-06T09:19:04.421Z,29.07
2023-02-06T09:21:37.810Z,27.97
2023-02-06T09:24:10.965Z,28.03
2023-02-06T09:26:58.447Z,27.10
2023-02-06T09:29:32.767Z,29.43
2023-02-06T09:32:11.138Z,25.77
2023-02-06T09:34:45.781Z,26.07
2023-02-06T09:37:19.456Z,26.83
2023-02-06T09:39:52.408Z,27.93
2023-02-06T09:42:29.690Z,30.87
2023-02-06T09:45:06.735Z,36.93
2023-02-06T09:47:42.540Z,28.53
2023-02-06T09:50:23.580Z,29.20
2023-02-06T09:53:06.407Z,20.40
2023-02-06T09:55:43.737Z,25.17
2023-02-06T09:58:22.760Z,26.17
2023-02-06T10:00:59.842Z,29.47
2023-02-06T10:03:53.968Z,21.87
2023-02-06T10:06:30.350Z,20.03
2023-02-06T10:09:04.624Z,24.93
2023-02-06T10:11:42.669Z,28.17
2023-02-06T10:14:19.243Z,25.17
2023-02-06T10:17:00.424Z,26.67
2023-02-06T10:19:41.083Z,24.57
2023-02-06T10:22:17.066Z,24.93
2023-02-06T10:24:53.976Z,32.30
2023-02-06T10:27:27.896Z,30.70
2023-02-06T10:30:01.743Z,26.23
2023-02-06T10:32:43.119Z,27.37
2023-02-06T10:35:39.725Z,24.00
2023-02-06T10:38:26.879Z,25.73
2023-02-06T10:41:04.778Z,25.00
2023-02-06T10:43:41.898Z,22.03
2023-02-06T10:46:25.987Z,21.07
2023-02-06T10:49:01.794Z,23.20
2023-02-06T10:51:36.584Z,22.87
2023-02-06T10:54:14.987Z,24.67
2023-02-06T10:56:48.762Z,23.83
2023-02-06T10:59:33.725Z,22.80
2023-02-06T11:02:16.528Z,24.07
2023-02-06T11:04:54.002Z,28.37
2023-02-06T11:07:28.889Z,23.80
2023-02-06T11:10:03.433Z,20.40
2023-02-06T11:12:38.588Z,18.23
2023-02-06T11:15:19.336Z,19.50
2023-02-06T11:17:53.976Z,21.53
2023-02-06T11:20:29.487Z,19.43
2023-02-06T11:23:15.561Z,19.20
2023-02-06T11:25:53.450Z,17.97
2023-02-06T11:28:26.820Z,20.63
2023-02-06T11:31:01.065Z,22.53
2023-02-06T11:33:47.401Z,22.40
2023-02-06T11:36:23.711Z,25.20
2023-02-06T11:38:58.393Z,26.80
2023-02-06T11:41:33.331Z,22.97
2023-02-06T11:44:07.497Z,21.67
2023-02-06T11:46:40.428Z,23.53
2023-02-06T11:49:24.599Z,23.70
2023-02-06T11:51:59.928Z,23.53
2023-02-06T11:54:35.663Z,28.80
2023-02-06T11:57:22.039Z,27.37
2023-02-06T11:59:59.454Z,28.40
2023-02-06T12:02:34.815Z,23.17
2023-02-06T12:05:12.004Z,22.10
2023-02-06T12:07:47.583Z,24.30
2023-02-06T12:10:24.587Z,23.43
2023-02-06T12:13:02.461Z,22.73
2023-02-06T12:15:47.060Z,24.87
2023-02-06T12:18:27.053Z,20.70
2023-02-06T12:21:01.341Z,24.50
2023-02-06T12:23:36.955Z,27.97
2023-02-06T12:26:12.561Z,24.17
2023-02-06T12:28:52.023Z,22.77
2023-02-06T12:31:32.463Z,27.53
2023-02-06T12:34:13.213Z,22.37
2023-02-06T12:37:09.179Z,25.93
2023-02-06T12:39:45.764Z,28.70
2023-02-06T12:42:32.242Z,23.83
2023-02-06T12:45:16.129Z,23.20
2023-02-06T12:47:55.761Z,28.30
2023-02-06T12:50:30.266Z,26.07
2023-02-06T12:53:05.948Z,37.63
2023-02-06T12:55:41.155Z,27.57
2023-02-06T12:58:25.218Z,26.93
2023-02-06T13:01:28.858Z,26.43
2023-02-06T13:04:07.849Z,22.10
2023-02-06T13:06:47.522Z,22.37
2023-02-06T13:09:22.600Z,23.40
2023-02-06T13:12:08.499Z,23.93
2023-02-06T13:14:47.231Z,21.10
2023-02-06T13:17:25.491Z,22.90
2023-02-06T13:20:03.275Z,25.67
2023-02-06T13:22:54.080Z,27.87
2023-02-06T13:25:54.348Z,22.10
2023-02-06T13:28:45.994Z,23.37
2023-02-06T13:31:27.084Z,21.77
2023-02-06T13:34:02.957Z,25.00
2023-02-06T13:36:50.037Z,23.63
2023-02-06T13:39:25.003Z,25.67
2023-02-06T13:42:00.523Z,24.97
2023-02-06T13:44:37.055Z,24.17
2023-02-06T13:47:32.347Z,24.33
2023-02-06T13:50:20.437Z,27.40
2023-02-06T13:53:09.841Z,25.77
2023-02-06T13:56:04.722Z,30.60
2023-02-06T13:58:42.509Z,24.83
2023-02-06T14:01:17.262Z,24.83
2023-02-06T14:03:54.429Z,24.93
2023-02-06T14:06:43.787Z,24.43
2023-02-06T14:09:30.841Z,22.30
2023-02-06T14:12:27.344Z,20.97
2023-02-06T14:15:05.842Z,22.93
2023-02-06T14:17:48.006Z,20.20
2023-02-06T14:20:34.287Z,17.93
2023-02-06T14:23:31.390Z,21.33
2023-02-06T14:26:11.741Z,20.10
2023-02-06T14:28:48.402Z,19.80
2023-02-06T14:31:30.018Z,21.90
2023-02-06T14:34:10.214Z,21.70
2023-02-06T14:36:55.594Z,23.73
2023-02-06T14:39:41.550Z,24.33
2023-02-06T14:42:40.521Z,22.87
2023-02-06T14:45:30.562Z,25.77
2023-02-06T14:48:26.937Z,20.90
2023-02-06T14:51:00.530Z,21.83
2023-02-06T14:53:36.076Z,19.07
2023-02-06T14:56:11.272Z,29.43
2023-02-06T14:58:46.668Z,17.83
2023-02-06T15:01:22.232Z,20.17
2023-02-06T15:04:10.668Z,20.60
2023-02-06T15:06:48.295Z,16.20
2023-02-06T15:09:26.034Z,17.40
2023-02-06T15:12:23.441Z,19.03
2023-02-06T15:15:24.309Z,19.90
2023-02-06T15:17:58.058Z,17.57
2023-02-06T15:20:37.432Z,16.83
2023-02-06T15:23:22.249Z,17.07
2023-02-06T15:26:05.647Z,19.47
2023-02-06T15:28:55.975Z,21.17
2023-02-06T15:31:34.260Z,16.80
2023-02-06T15:34:18.611Z,19.63
2023-02-06T15:37:04.808Z,22.40
2023-02-06T15:39:52.355Z,24.97
2023-02-06T15:42:38.362Z,20.00
2023-02-06T15:45:21.712Z,18.93
2023-02-06T15:47:57.480Z,20.93
2023-02-06T15:50:30.328Z,20.67
2023-02-06T15:53:20.372Z,24.70
2023-02-06T15:55:54.072Z,19.07
2023-02-06T15:58:27.392Z,21.73
2023-02-06T16:01:05.997Z,17.63
2023-02-06T16:03:46.235Z,19.53
2023-02-06T16:06:21.967Z,25.53
2023-02-06T16:08:57.587Z,19.57
2023-02-06T16:11:50.509Z,21.93
2023-02-06T16:14:31.756Z,20.67
2023-02-06T16:17:24.488Z,22.57
2023-02-06T16:20:00.279Z,19.30
2023-02-06T16:22:37.785Z,18.73
2023-02-06T16:25:19.014Z,17.50
2023-02-06T16:27:55.438Z,18.67
2023-02-06T16:30:36.991Z,20.63
2023-02-06T16:33:16.610Z,19.60
2023-02-06T16:35:51.929Z,18.50
2023-02-06T16:38:29.708Z,18.63
2023-02-06T16:41:12.470Z,18.07
2023-02-06T16:43:45.754Z,18.47
2023-02-06T16:46:19.071Z,18.47
2023-02-06T16:48:52.280Z,18.37
2023-02-06T16:51:33.851Z,21.63
2023-02-06T16:54:07.637Z,15.20
2023-02-06T16:56:40.877Z,25.60
2023-02-06T16:59:14.421Z,23.33
2023-02-06T17:01:50.195Z,21.93
2023-02-06T17:04:25.396Z,19.87
2023-02-06T17:07:17.054Z,20.87
2023-02-06T17:09:51.172Z,18.43
2023-02-06T17:12:29.910Z,21.53
2023-02-06T17:15:08.377Z,19.97
2023-02-06T17:17:48.494Z,20.17
2023-02-06T17:20:35.304Z,21.10
2023-02-06T17:23:17.375Z,19.27
2023-02-06T17:25:51.136Z,20.87
2023-02-06T17:28:30.133Z,20.83
2023-02-06T17:31:26.761Z,22.30
2023-02-06T17:34:07.462Z,24.77
2023-02-06T17:36:47.826Z,23.60
2023-02-06T17:39:34.418Z,26.10
2023-02-06T17:42:17.796Z,23.00
2023-02-06T17:45:00.060Z,27.30
2023-02-06T17:47:39.134Z,22.90
2023-02-06T17:50:17.601Z,22.33
2023-02-06T17:52:56.743Z,20.93
2023-02-06T17:55:36.280Z,22.40
2023-02-06T17:58:09.886Z,27.37
2023-02-06T18:00:53.295Z,23.40
2023-02-06T18:03:27.214Z,21.03
2023-02-06T18:06:21.001Z,24.77
2023-02-06T18:09:03.654Z,25.17
2023-02-06T18:11:48.452Z,24.43
2023-02-06T18:14:26.799Z,22.77
2023-02-06T18:17:10.028Z,25.80
2023-02-06T18:19:44.229Z,26.17
2023-02-06T18:22:20.492Z,25.13
2023-02-06T18:24:53.846Z,24.50
2023-02-06T18:27:43.041Z,27.30
2023-02-06T18:30:51.482Z,24.60
2023-02-06T18:33:25.786Z,24.77
2023-02-06T18:36:07.146Z,28.87
2023-02-06T18:39:02.578Z,26.20
2023-02-06T18:41:55.824Z,27.53
2023-02-06T18:44:31.760Z,27.63
2023-02-06T18:50:00.589Z,25.33
2023-02-06T18:52:35.795Z,27.53
2023-02-06T18:55:09.421Z,27.90
2023-02-06T18:57:43.642Z,24.93
2023-02-06T19:00:19.572Z,30.73
2023-02-06T19:02:53.118Z,22.97
2023-02-06T19:05:26.268Z,26.87
2023-02-06T19:07:59.410Z,26.17
2023-02-06T19:10:36.180Z,28.20
2023-02-06T19:13:18.559Z,28.17
2023-02-06T19:16:10.538Z,30.80
2023-02-06T19:18:45.229Z,24.17
2023-02-06T19:21:19.484Z,27.60
2023-02-06T19:23:55.019Z,27.80
2023-02-06T19:26:28.708Z,29.00
2023-02-06T19:29:05.275Z,29.90
2023-02-06T19:31:40.801Z,36.03
2023-02-06T19:34:18.760Z,30.63
2023-02-06T19:36:54.137Z,29.73
2023-02-06T19:39:27.727Z,29.90
2023-02-06T19:42:01.506Z,29.33
2023-02-06T19:44:39.138Z,32.03
2023-02-06T19:47:19.729Z,31.27
2023-02-06T19:49:53.468Z,28.93
2023-02-06T19:52:28.630Z,32.03
2023-02-06T19:55:05.058Z,34.80
2023-02-06T19:57:39.641Z,29.43
2023-02-06T20:00:13.276Z,32.13
2023-02-06T20:02:47.924Z,28.97
2023-02-06T20:05:29.276Z,33.87
2023-02-06T20:08:04.170Z,28.13
2023-02-06T20:10:40.500Z,45.50
2023-02-06T20:13:14.232Z,32.40
2023-02-06T20:15:51.165Z,29.03
2023-02-06T20:18:29.253Z,32.83
2023-02-06T20:21:05.192Z,33.90
2023-02-06T20:23:42.105Z,38.47
2023-02-06T20:26:15.044Z,38.37
2023-02-06T20:28:48.536Z,38.63
2023-02-06T20:31:23.667Z,34.53
2023-02-06T20:33:58.219Z,31.93
2023-02-06T20:36:31.713Z,36.87
2023-02-06T20:39:05.108Z,35.30
2023-02-06T20:41:37.990Z,38.63
2023-02-06T20:44:11.658Z,34.90
2023-02-06T20:46:46.492Z,31.77
2023-02-06T20:49:24.897Z,33.70
2023-02-06T20:52:03.886Z,34.40
2023-02-06T20:54:40.599Z,31.50
2023-02-06T20:57:23.696Z,36.10
2023-02-06T21:00:01.287Z,34.40
2023-02-06T21:02:44.656Z,39.43
2023-02-06T21:05:19.533Z,36.90
2023-02-06T21:07:52.488Z,39.33
2023-02-06T21:10:25.878Z,37.23
2023-02-06T21:12:58.852Z,39.10
2023-02-06T21:15:34.097Z,39.70
2023-02-06T21:18:11.634Z,43.17
2023-02-06T21:20:46.067Z,37.97
2023-02-06T21:23:19.212Z,35.50
2023-02-06T21:25:52.404Z,37.77
2023-02-06T21:28:25.617Z,39.40
2023-02-06T21:31:03.423Z,41.77
2023-02-06T21:33:37.569Z,35.13
2023-02-06T21:36:14.183Z,35.90
2023-02-06T21:38:49.246Z,36.67
2023-02-06T21:41:24.720Z,36.73
2023-02-06T21:43:59.680Z,38.77
2023-02-06T21:46:33.395Z,41.27
2023-02-06T21:49:09.219Z,35.40
2023-02-06T21:51:49.153Z,39.43
2023-02-06T21:54:24.761Z,36.07
2023-02-06T21:57:07.577Z,38.77
2023-02-06T21:59:52.051Z,36.43
2023-02-06T22:02:28.520Z,38.70
2023-02-06T22:05:01.768Z,39.53
2023-02-06T22:07:37.516Z,37.33
2023-02-06T22:10:11.296Z,40.90
2023-02-06T22:12:44.441Z,43.53
2023-02-06T22:15:17.867Z,41.23
2023-02-06T22:17:50.953Z,44.77
2023-02-06T22:20:24.060Z,48.73
2023-02-06T22:23:00.891Z,45.23
2023-02-06T22:25:36.445Z,47.80
2023-02-06T22:28:09.752Z,46.27
2023-02-06T22:30:42.764Z,42.27
2023-02-06T22:33:18.375Z,48.73
2023-02-06T22:35:54.899Z,46.13
2023-02-06T22:38:30.649Z,40.97
2023-02-06T22:41:04.945Z,46.47
2023-02-06T22:43:41.408Z,39.43
2023-02-06T22:46:18.834Z,45.30
2023-02-06T22:48:54.612Z,42.13
2023-02-06T22:51:27.883Z,46.27
2023-02-06T22:54:03.662Z,41.70
2023-02-06T22:56:40.097Z,42.37
2023-02-06T22:59:16.970Z,38.73
2023-02-06T23:01:54.866Z,41.80
2023-02-06T23:04:28.707Z,41.07
2023-02-06T23:07:04.940Z,41.87
2023-02-06T23:09:39.816Z,39.53
2023-02-06T23:12:13.783Z,41.70
2023-02-06T23:14:48.599Z,39.93
2023-02-06T23:17:21.807Z,39.43
2023-02-06T23:19:55.255Z,44.43
2023-02-06T23:22:31.298Z,37.60
2023-02-06T23:25:10.272Z,34.03
2023-02-06T23:27:46.626Z,33.60
2023-02-06T23:30:20.628Z,34.93
2023-02-06T23:33:10.585Z,34.60
2023-02-06T23:35:51.160Z,38.50
2023-02-06T23:38:33.998Z,32.53
2023-02-06T23:41:19.811Z,37.83
2023-02-06T23:43:56.099Z,32.50
2023-02-06T23:46:34.878Z,36.80
2023-02-06T23:49:12.428Z,40.37
2023-02-06T23:51:57.717Z,36.60
2023-02-06T23:54:38.442Z,37.63
2023-02-06T23:57:15.373Z,35.53
2023-02-06T23:59:51.662Z,39.00
